createdAt,value
2024-01-16T00:00:24.135Z,95938.23
2024-01-16T00:02:50.760Z,95936.45
2024-01-16T00:05:17.450Z,95937.92
2024-01-16T00:07:44.048Z,95945.89
2024-01-16T00:10:10.844Z,95947.82
2024-01-16T00:12:37.934Z,95947.27
2024-01-16T00:15:06.362Z,95949.73
2024-01-16T00:17:33.097Z,95945.36
2024-01-16T00:20:04.717Z,95944.05
2024-01-16T00:22:31.440Z,95945.42
2024-01-16T00:25:02.189Z,95945.27
2024-01-16T00:27:28.910Z,95948.11
2024-01-16T00:29:55.346Z,95960.94
2024-01-16T00:32:22.098Z,95959.39
2024-01-16T00:34:48.720Z,95966.90
2024-01-16T00:37:15.283Z,95970.35
2024-01-16T00:39:41.786Z,95973.20
2024-01-16T00:42:08.838Z,95977.18
2024-01-16T00:44:35.706Z,95971.05
2024-01-16T00:47:02.465Z,95971.79
2024-01-16T00:49:29.833Z,95974.18
2024-01-16T00:51:56.528Z,95978.63
2024-01-16T00:54:23.157Z,95983.16
2024-01-16T00:56:49.803Z,95978.77
2024-01-16T00:59:16.647Z,95981.70
2024-01-16T01:01:43.484Z,95984.77
2024-01-16T01:04:10.035Z,95984.77
2024-01-16T01:06:37.046Z,95990.68
2024-01-16T01:09:03.897Z,95988.14
2024-01-16T01:11:30.945Z,95990.21
2024-01-16T01:13:57.490Z,95994.05
2024-01-16T01:16:24.010Z,95989.67
2024-01-16T01:18:50.804Z,95990.13
2024-01-16T01:21:17.889Z,95984.74
2024-01-16T01:23:44.410Z,95984.65
2024-01-16T01:26:14.454Z,95987.21
2024-01-16T01:28:41.596Z,95982.89
2024-01-16T01:31:11.558Z,95983.50
2024-01-16T01:33:38.172Z,95983.58
2024-01-16T01:36:05.086Z,95985.65
2024-01-16T01:38:31.752Z,95990.48
2024-01-16T01:40:58.344Z,95994.79
2024-01-16T01:43:25.391Z,95997.17
2024-01-16T01:46:10.682Z,95998.08
2024-01-16T01:48:38.453Z,96002.83
2024-01-16T01:51:05.158Z,96007.73
2024-01-16T01:53:32.035Z,96008.59
2024-01-16T01:55:58.734Z,96011.41
2024-01-16T01:58:25.378Z,96008.44
2024-01-16T02:00:51.924Z,96012.04
2024-01-16T02:03:18.562Z,96016.02
2024-01-16T02:05:45.108Z,96017.16
2024-01-16T02:08:12.145Z,96022.33
2024-01-16T02:10:38.671Z,96025.84
2024-01-16T02:13:05.602Z,96029.90
2024-01-16T02:15:32.128Z,96033.91
2024-01-16T02:17:58.698Z,96031.67
2024-01-16T02:20:25.427Z,96036.80
2024-01-16T02:22:52.247Z,96042.55
2024-01-16T02:25:18.889Z,96041.02
2024-01-16T02:27:45.728Z,96042.79
2024-01-16T02:30:13.187Z,96044.71
2024-01-16T02:32:39.899Z,96041.10
2024-01-16T02:35:07.197Z,96042.08
2024-01-16T02:37:33.798Z,96042.08
2024-01-16T02:40:01.971Z,96049.15
2024-01-16T02:42:28.401Z,96050.29
2024-01-16T02:44:55.078Z,96051.43
2024-01-16T02:47:21.602Z,96053.36
2024-01-16T02:49:48.631Z,96057.34
2024-01-16T02:52:15.785Z,96065.16
2024-01-16T02:54:42.215Z,96068.41
2024-01-16T02:57:08.759Z,96072.46
2024-01-16T02:59:35.518Z,96066.79
2024-01-16T03:02:03.151Z,96069.15
2024-01-16T03:04:29.998Z,96066.16
2024-01-16T03:06:56.706Z,96065.70
2024-01-16T03:09:23.373Z,96067.16
2024-01-16T03:11:49.896Z,96066.01
2024-01-16T03:14:16.561Z,96063.47
2024-01-16T03:16:43.183Z,96064.61
2024-01-16T03:19:09.791Z,96070.91
2024-01-16T03:21:36.453Z,96068.07
2024-01-16T03:24:02.897Z,96072.07
2024-01-16T03:26:29.581Z,96069.37
2024-01-16T03:28:56.158Z,96073.35
2024-01-16T03:31:22.972Z,96076.35
2024-01-16T03:33:49.879Z,96077.27
2024-01-16T03:36:17.092Z,96081.41
2024-01-16T03:38:44.015Z,96084.64
2024-01-16T03:41:13.814Z,96084.80
2024-01-16T03:43:41.197Z,96089.23
2024-01-16T03:46:08.452Z,96089.02
2024-01-16T03:48:35.056Z,96090.84
2024-01-16T03:51:03.262Z,96087.91
2024-01-16T03:53:29.921Z,96094.14
2024-01-16T03:55:56.634Z,96093.66
2024-01-16T03:58:23.891Z,96096.73
2024-01-16T04:00:51.722Z,96097.88
2024-01-16T04:03:18.488Z,96103.73
2024-01-16T04:05:45.248Z,96107.69
2024-01-16T04:08:13.317Z,96105.31
2024-01-16T04:10:39.941Z,96107.38
2024-01-16T04:13:07.078Z,96106.23
2024-01-16T04:15:34.332Z,96110.53
2024-01-16T04:18:00.883Z,96113.52
2024-01-16T04:20:27.424Z,96110.23
2024-01-16T04:22:54.043Z,96113.20
2024-01-16T04:25:20.673Z,96114.05
2024-01-16T04:27:47.397Z,96116.96
2024-01-16T04:30:14.244Z,96114.66
2024-01-16T04:32:41.261Z,96117.20
2024-01-16T04:35:08.392Z,96115.82
2024-01-16T04:37:35.201Z,96124.02
2024-01-16T04:40:01.726Z,96132.92
2024-01-16T04:42:28.460Z,96138.07
2024-01-16T04:44:55.262Z,96142.29
2024-01-16T04:47:21.967Z,96147.20
2024-01-16T04:49:48.784Z,96152.95
2024-01-16T04:52:15.330Z,96157.72
2024-01-16T04:54:41.952Z,96157.18
2024-01-16T04:57:08.605Z,96156.10
2024-01-16T04:59:35.144Z,96157.55
2024-01-16T05:02:01.759Z,96157.02
2024-01-16T05:04:28.397Z,96153.70
2024-01-16T05:06:55.848Z,96154.33
2024-01-16T05:09:22.390Z,96161.08
2024-01-16T05:11:49.487Z,96164.61
2024-01-16T05:14:16.124Z,96166.77
2024-01-16T05:16:42.805Z,96171.38
2024-01-16T05:19:09.426Z,96168.77
2024-01-16T05:21:36.128Z,96175.15
2024-01-16T05:24:03.332Z,96175.13
2024-01-16T05:26:30.098Z,96183.02
2024-01-16T05:28:56.704Z,96185.57
2024-01-16T05:31:23.234Z,96186.10
2024-01-16T05:33:50.099Z,96193.01
2024-01-16T05:36:16.922Z,96198.08
2024-01-16T05:38:44.616Z,96199.45
2024-01-16T05:41:11.197Z,96204.21
2024-01-16T05:43:37.749Z,96211.21
2024-01-16T05:46:04.602Z,96214.14
2024-01-16T05:48:31.316Z,96221.89
2024-01-16T05:50:58.015Z,96232.33
2024-01-16T05:53:24.632Z,96241.77
2024-01-16T05:55:51.184Z,96240.54
2024-01-16T05:58:17.884Z,96240.86
2024-01-16T06:00:44.546Z,96244.48
2024-01-16T06:03:11.247Z,96245.62
2024-01-16T06:05:38.006Z,96252.60
2024-01-16T06:08:05.340Z,96262.75
2024-01-16T06:10:31.974Z,96261.77
2024-01-16T06:12:58.620Z,96263.23
2024-01-16T06:15:25.358Z,96262.79
2024-01-16T06:17:51.966Z,96257.40
2024-01-16T06:20:18.660Z,96266.23
2024-01-16T06:22:45.270Z,96266.70
2024-01-16T06:25:11.896Z,96275.77
2024-01-16T06:27:38.536Z,96280.48
2024-01-16T06:30:05.921Z,96282.77
2024-01-16T06:32:33.012Z,96291.25
2024-01-16T06:34:59.879Z,96299.85
2024-01-16T06:37:26.313Z,96301.33
2024-01-16T06:39:52.942Z,96308.86
2024-01-16T06:42:20.502Z,96319.61
2024-01-16T06:44:47.164Z,96323.56
2024-01-16T06:47:13.708Z,96324.73
2024-01-16T06:49:40.308Z,96323.84
2024-01-16T06:52:09.059Z,96329.77
2024-01-16T06:54:35.690Z,96324.02
2024-01-16T06:57:02.213Z,96331.13
2024-01-16T06:59:29.044Z,96338.30
2024-01-16T07:01:55.959Z,96338.11
2024-01-16T07:04:22.609Z,96341.75
2024-01-16T07:06:49.318Z,96348.47
2024-01-16T07:09:17.106Z,96355.48
2024-01-16T07:11:44.031Z,96357.06
2024-01-16T07:14:10.986Z,96362.45
2024-01-16T07:16:37.604Z,96362.56
2024-01-16T07:19:04.392Z,96366.20
2024-01-16T07:21:31.072Z,96369.08
2024-01-16T07:23:58.098Z,96371.65
2024-01-16T07:26:24.918Z,96371.36
2024-01-16T07:28:51.698Z,96376.07
2024-01-16T07:31:18.435Z,96382.64
2024-01-16T07:33:45.194Z,96387.95
2024-01-16T07:36:12.017Z,96392.80
2024-01-16T07:38:38.728Z,96398.56
2024-01-16T07:41:06.223Z,96406.17
2024-01-16T07:43:33.150Z,96410.19
2024-01-16T07:46:00.530Z,96414.55
2024-01-16T07:48:27.356Z,96417.10
2024-01-16T07:50:54.765Z,96416.61
2024-01-16T07:53:21.444Z,96422.84
2024-01-16T07:55:48.173Z,96425.94
2024-01-16T07:58:15.035Z,96431.22
2024-01-16T08:00:41.762Z,96432.84
2024-01-16T08:03:09.157Z,96432.68
2024-01-16T08:05:36.437Z,96436.83
2024-01-16T08:08:03.714Z,96437.84
2024-01-16T08:10:30.450Z,96443.14
2024-01-16T08:12:56.992Z,96447.20
2024-01-16T08:15:23.545Z,96447.83
2024-01-16T08:17:50.245Z,96450.11
2024-01-16T08:20:36.811Z,96460.27
2024-01-16T08:23:03.827Z,96457.96
2024-01-16T08:25:30.488Z,96459.11
2024-01-16T08:27:57.314Z,96459.58
2024-01-16T08:30:24.196Z,96462.81
2024-01-16T08:32:51.094Z,96472.52
2024-01-16T08:35:18.092Z,96480.98
2024-01-16T08:37:45.102Z,96487.54
2024-01-16T08:40:12.448Z,96496.62
2024-01-16T08:42:39.213Z,96499.94
2024-01-16T08:45:06.738Z,96503.47
2024-01-16T08:47:33.654Z,96506.25
2024-01-16T08:50:00.312Z,96513.10
2024-01-16T08:52:26.952Z,96518.02
2024-01-16T08:54:53.590Z,96516.62
2024-01-16T08:57:21.626Z,96514.18
2024-01-16T08:59:49.489Z,96516.77
2024-01-16T09:02:16.955Z,96514.63
2024-01-16T09:04:43.886Z,96515.48
2024-01-16T09:07:10.766Z,96514.05
2024-01-16T09:09:37.506Z,96518.60
2024-01-16T09:12:04.667Z,96525.94
2024-01-16T09:14:31.458Z,96522.83
2024-01-16T09:16:58.275Z,96528.94
2024-01-16T09:19:24.994Z,96529.91
2024-01-16T09:21:52.222Z,96531.94
2024-01-16T09:24:19.676Z,96534.58
2024-01-16T09:26:46.260Z,96536.36
2024-01-16T09:29:12.994Z,96538.92
2024-01-16T09:31:39.718Z,96536.31
2024-01-16T09:34:09.668Z,96536.88
2024-01-16T09:36:37.567Z,96539.79
2024-01-16T09:39:08.507Z,96537.86
2024-01-16T09:41:35.709Z,96545.09
2024-01-16T09:44:02.494Z,96545.41
2024-01-16T09:46:29.284Z,96546.91
2024-01-16T09:48:56.901Z,96548.39
2024-01-16T09:51:23.734Z,96548.79
2024-01-16T09:53:50.492Z,96553.11
2024-01-16T09:56:17.657Z,96555.20
2024-01-16T09:58:44.974Z,96557.05
2024-01-16T10:01:12.196Z,96565.73
2024-01-16T10:03:39.216Z,96561.96
2024-01-16T10:06:07.275Z,96555.31
2024-01-16T10:08:34.214Z,96558.35
2024-01-16T10:11:00.921Z,96566.35
2024-01-16T10:13:27.557Z,96568.49
2024-01-16T10:15:56.064Z,96565.26
2024-01-16T10:18:25.174Z,96569.70
2024-01-16T10:20:53.418Z,96568.84
2024-01-16T10:23:24.791Z,96571.37
2024-01-16T10:26:12.314Z,96573.06
2024-01-16T10:28:42.563Z,96574.29
2024-01-16T10:31:11.330Z,96578.66
2024-01-16T10:33:40.150Z,96583.11
2024-01-16T10:36:11.237Z,96584.31
2024-01-16T10:38:39.331Z,96587.86
2024-01-16T10:41:07.356Z,96585.33
2024-01-16T10:43:33.932Z,96591.81
2024-01-16T10:46:14.210Z,96595.13
2024-01-16T10:48:43.218Z,96594.91
2024-01-16T10:51:15.724Z,96599.46
2024-01-16T10:53:45.636Z,96599.46
2024-01-16T10:56:16.311Z,96605.39
2024-01-16T10:58:44.085Z,96611.39
2024-01-16T11:01:17.158Z,96611.86
2024-01-16T11:03:50.566Z,96613.42
2024-01-16T11:06:18.164Z,96611.64
2024-01-16T11:08:48.754Z,96615.82
2024-01-16T11:11:16.191Z,96615.13
2024-01-16T11:27:10.690Z,96632.20
2024-01-16T11:29:38.015Z,96633.00
2024-01-16T11:32:18.042Z,96632.09
2024-01-16T11:34:56.342Z,96631.61
2024-01-16T11:37:28.408Z,96634.26
2024-01-16T11:40:24.727Z,96638.16
2024-01-16T11:42:54.045Z,96636.98
2024-01-16T11:45:29.973Z,96641.01
2024-01-16T11:48:12.839Z,96650.58
2024-01-16T11:50:40.180Z,96654.75
2024-01-16T11:53:06.882Z,96657.80
2024-01-16T11:55:55.838Z,96659.39
2024-01-16T11:58:28.051Z,96659.09
2024-01-16T12:00:54.843Z,96661.23
2024-01-16T12:03:31.435Z,96663.38
2024-01-16T12:06:03.221Z,96661.20
2024-01-16T12:08:30.357Z,96662.96
2024-01-16T12:10:58.286Z,96671.84
2024-01-16T12:13:24.834Z,96677.89
2024-01-16T12:16:01.706Z,96687.61
2024-01-16T12:18:38.506Z,96696.50
2024-01-16T12:21:11.219Z,96699.84
2024-01-16T12:23:38.720Z,96708.89
2024-01-16T12:26:07.097Z,96715.64
2024-01-16T12:28:34.432Z,96717.00
2024-01-16T12:31:02.164Z,96724.67
2024-01-16T12:33:30.168Z,96728.48
2024-01-16T12:36:04.671Z,96727.64
2024-01-16T12:38:32.042Z,96732.48
2024-01-16T12:40:58.955Z,96729.85
2024-01-16T12:43:25.650Z,96733.63
2024-01-16T12:45:56.571Z,96736.59
2024-01-16T12:48:24.858Z,96739.35
2024-01-16T12:50:51.714Z,96737.14
2024-01-16T12:53:24.516Z,96745.30
2024-01-16T12:55:58.579Z,96744.89
2024-01-16T12:58:27.362Z,96753.73
2024-01-16T13:00:54.359Z,96761.11
2024-01-16T13:03:27.134Z,96767.81
2024-01-16T13:05:59.077Z,96766.26
2024-01-16T13:08:26.225Z,96774.94
2024-01-16T13:11:06.258Z,96778.04
2024-01-16T13:13:33.392Z,96776.10
2024-01-16T13:16:01.258Z,96778.54
2024-01-16T13:18:28.947Z,96779.67
2024-01-16T13:20:56.949Z,96778.35
2024-01-16T13:23:25.789Z,96778.67
2024-01-16T13:25:52.525Z,96777.82
2024-01-16T13:28:21.393Z,96783.89
2024-01-16T13:30:49.817Z,96785.11
2024-01-16T13:33:17.287Z,96790.61
2024-01-16T13:35:45.833Z,96795.87
2024-01-16T13:38:13.414Z,96795.23
2024-01-16T13:40:41.374Z,96800.30
2024-01-16T13:43:07.876Z,96808.14
2024-01-16T13:45:36.221Z,96814.48
2024-01-16T13:48:03.441Z,96813.83
2024-01-16T13:50:31.703Z,96815.81
2024-01-16T13:52:58.414Z,96817.23
2024-01-16T13:55:25.047Z,96818.66
2024-01-16T13:57:53.089Z,96823.77
2024-01-16T14:00:19.963Z,96830.89
2024-01-16T14:02:47.477Z,96838.56
2024-01-16T14:05:20.431Z,96846.20
2024-01-16T14:07:51.142Z,96854.17
2024-01-16T14:10:19.216Z,96860.36
2024-01-16T14:12:47.480Z,96862.71
2024-01-16T14:15:20.162Z,96867.06
2024-01-16T14:17:48.045Z,96867.67
2024-01-16T14:20:15.724Z,96867.33
2024-01-16T14:22:42.766Z,96870.00
2024-01-16T14:25:13.276Z,96875.42
2024-01-16T14:27:43.689Z,96880.02
2024-01-16T14:30:14.723Z,96888.86
2024-01-16T14:32:42.641Z,96886.73
2024-01-16T14:35:10.466Z,96890.73
2024-01-16T14:37:37.811Z,96900.10
2024-01-16T14:40:21.136Z,96903.14
2024-01-16T14:42:54.124Z,96909.96
2024-01-16T14:45:21.885Z,96915.55
2024-01-16T14:47:49.982Z,96923.20
2024-01-16T14:50:20.140Z,96928.39
2024-01-16T14:52:49.417Z,96934.36
2024-01-16T14:55:17.753Z,96939.06
2024-01-16T14:57:47.251Z,96939.20
2024-01-16T15:00:20.884Z,96950.98
2024-01-16T15:02:48.559Z,96961.92
2024-01-16T15:05:19.993Z,96963.89
2024-01-16T15:07:47.619Z,96971.44
2024-01-16T15:10:16.099Z,96978.98
2024-01-16T15:12:43.270Z,96983.85
2024-01-16T15:15:12.619Z,96984.73
2024-01-16T15:17:39.350Z,96992.04
2024-01-16T15:20:08.880Z,96993.63
2024-01-16T15:22:39.420Z,96994.05
2024-01-16T15:25:06.472Z,97000.48
2024-01-16T15:27:33.822Z,97007.77
2024-01-16T15:30:01.105Z,97005.11
2024-01-16T15:32:27.945Z,97010.29
2024-01-16T15:34:54.613Z,97014.88
2024-01-16T15:37:21.289Z,97014.48
2024-01-16T15:39:48.134Z,97018.77
2024-01-16T15:42:14.670Z,97018.51
2024-01-16T15:44:41.241Z,97023.66
2024-01-16T15:47:08.066Z,97025.86
2024-01-16T15:49:36.291Z,97030.15
2024-01-16T15:52:03.100Z,97035.81
2024-01-16T15:54:31.225Z,97038.84
2024-01-16T15:56:58.905Z,97038.83
2024-01-16T15:59:26.598Z,97043.96
2024-01-16T16:01:53.212Z,97051.41
2024-01-16T16:04:19.929Z,97051.84
2024-01-16T16:06:46.646Z,97058.04
2024-01-16T16:09:13.294Z,97059.02
2024-01-16T16:11:45.002Z,97062.85
2024-01-16T16:14:12.433Z,97060.77
2024-01-16T16:16:39.963Z,97051.29
2024-01-16T16:19:06.673Z,97053.59
2024-01-16T16:21:33.952Z,97061.70
2024-01-16T16:24:01.099Z,97066.52
2024-01-16T16:26:37.621Z,97070.66
2024-01-16T16:29:06.164Z,97069.33
2024-01-16T16:31:33.095Z,97073.39
2024-01-16T16:34:00.663Z,97075.20
2024-01-16T16:36:27.793Z,97072.83
2024-01-16T16:38:55.958Z,97080.27
2024-01-16T16:41:23.445Z,97087.86
2024-01-16T16:43:50.575Z,97092.76
2024-01-16T16:46:17.750Z,97092.14
2024-01-16T16:48:45.552Z,97099.90
2024-01-16T16:51:13.556Z,97107.11
2024-01-16T16:53:44.257Z,97115.24
2024-01-16T16:56:15.921Z,97119.14
2024-01-16T16:58:43.700Z,97120.95
2024-01-16T17:01:11.311Z,97129.86
2024-01-16T17:03:38.378Z,97135.84
2024-01-16T17:06:06.356Z,97139.44
2024-01-16T17:08:34.445Z,97138.52
2024-01-16T17:11:00.986Z,97138.88
2024-01-16T17:13:29.773Z,97142.48
2024-01-16T17:15:59.282Z,97140.01
2024-01-16T17:18:29.289Z,97142.67
2024-01-16T17:20:57.411Z,97146.42
2024-01-16T17:23:24.016Z,97146.89
2024-01-16T17:25:50.637Z,97149.05
2024-01-16T17:28:17.287Z,97148.79
2024-01-16T17:30:44.248Z,97150.02
2024-01-16T17:33:11.126Z,97154.90
2024-01-16T17:35:38.643Z,97158.89
2024-01-16T17:38:05.459Z,97158.76
2024-01-16T17:40:32.516Z,97165.48
2024-01-16T17:42:59.049Z,97169.55
2024-01-16T17:45:25.874Z,97170.86
2024-01-16T17:47:52.679Z,97170.23
2024-01-16T17:50:19.623Z,97170.13
2024-01-16T17:52:46.299Z,97171.81
2024-01-16T17:55:12.868Z,97171.65
2024-01-16T17:57:41.524Z,97181.27
2024-01-16T18:00:10.022Z,97182.46
2024-01-16T18:02:38.922Z,97190.69
2024-01-16T18:05:10.950Z,97194.04
2024-01-16T18:07:39.446Z,97195.11
2024-01-16T18:10:09.795Z,97196.47
2024-01-16T18:12:39.672Z,97197.02
2024-01-16T18:15:15.625Z,97200.46
2024-01-16T18:17:45.716Z,97197.13
2024-01-16T18:20:13.921Z,97199.48
2024-01-16T18:22:41.575Z,97200.11
2024-01-16T18:25:09.942Z,97201.13
2024-01-16T18:27:36.894Z,97203.66
2024-01-16T18:30:05.421Z,97207.73
2024-01-16T18:32:33.435Z,97207.42
2024-01-16T18:35:00.390Z,97209.52
2024-01-16T18:37:27.125Z,97213.81
2024-01-16T18:39:54.062Z,97215.33
2024-01-16T18:42:23.262Z,97211.48
2024-01-16T18:44:50.447Z,97217.02
2024-01-16T18:47:17.317Z,97214.30
2024-01-16T18:49:44.025Z,97219.45
2024-01-16T18:52:10.626Z,97221.06
2024-01-16T18:54:37.360Z,97231.36
2024-01-16T18:57:04.466Z,97232.88
2024-01-16T18:59:31.303Z,97239.48
2024-01-16T19:01:59.384Z,97240.02
2024-01-16T19:04:26.317Z,97239.02
2024-01-16T19:06:53.117Z,97236.09
2024-01-16T19:09:19.959Z,97239.45
2024-01-16T19:11:49.259Z,97242.21
2024-01-16T19:14:17.476Z,97246.02
2024-01-16T19:16:44.976Z,97249.73
2024-01-16T19:19:11.675Z,97253.27
2024-01-16T19:21:38.486Z,97252.05
2024-01-16T19:24:05.701Z,97253.48
2024-01-16T19:26:32.398Z,97252.79
2024-01-16T19:28:59.095Z,97251.83
2024-01-16T19:31:26.235Z,97252.85
2024-01-16T19:33:53.098Z,97254.84
2024-01-16T19:36:19.921Z,97261.98
2024-01-16T19:38:46.679Z,97274.80
2024-01-16T19:41:14.728Z,97277.48
2024-01-16T19:43:41.358Z,97279.10
2024-01-16T19:46:09.124Z,97286.63
2024-01-16T19:48:39.771Z,97290.09
2024-01-16T19:51:06.939Z,97292.63
2024-01-16T19:53:34.077Z,97295.23
2024-01-16T19:56:06.009Z,97295.30
2024-01-16T19:58:32.748Z,97300.98
2024-01-16T20:00:59.498Z,97300.52
2024-01-16T20:03:27.357Z,97303.27
2024-01-16T20:05:54.144Z,97310.94
2024-01-16T20:08:21.074Z,97313.03
2024-01-16T20:10:47.887Z,97315.47
2024-01-16T20:13:14.522Z,97325.05
2024-01-16T20:15:41.053Z,97323.38
2024-01-16T20:18:09.907Z,97328.48
2024-01-16T20:20:37.017Z,97334.20
2024-01-16T20:23:04.698Z,97344.53
2024-01-16T20:25:31.688Z,97347.98
2024-01-16T20:28:00.369Z,97352.98
2024-01-16T20:30:26.993Z,97356.05
2024-01-16T20:32:55.980Z,97358.89
2024-01-16T20:35:23.907Z,97364.81
2024-01-16T20:37:51.010Z,97371.92
2024-01-16T20:40:17.646Z,97375.08
2024-01-16T20:42:44.200Z,97379.91
2024-01-16T20:45:11.012Z,97375.19
2024-01-16T20:47:38.829Z,97376.44
2024-01-16T20:50:06.652Z,97379.05
2024-01-16T20:52:34.313Z,97379.69
2024-01-16T20:55:06.145Z,97382.72
2024-01-16T20:57:33.630Z,97380.36
2024-01-16T21:00:00.267Z,97384.03
2024-01-16T21:02:27.224Z,97394.62
2024-01-16T21:04:53.853Z,97398.83
2024-01-16T21:07:23.433Z,97401.99
2024-01-16T21:09:50.605Z,97410.02
2024-01-16T21:12:17.241Z,97413.20
2024-01-16T21:14:44.517Z,97416.58
2024-01-16T21:17:11.125Z,97419.86
2024-01-16T21:19:37.803Z,97418.69
2024-01-16T21:22:06.963Z,97417.23
2024-01-16T21:24:34.417Z,97422.46
2024-01-16T21:27:01.991Z,97429.33
2024-01-16T21:29:28.722Z,97429.45
2024-01-16T21:31:56.168Z,97432.30
2024-01-16T21:34:23.856Z,97431.58
2024-01-16T21:36:52.270Z,97437.13
2024-01-16T21:39:20.802Z,97438.67
2024-01-16T21:41:47.347Z,97439.17
2024-01-16T21:44:14.474Z,97440.88
2024-01-16T21:46:42.483Z,97445.79
2024-01-16T21:49:09.955Z,97450.08
2024-01-16T21:51:36.878Z,97449.23
2024-01-16T21:54:06.311Z,97450.09
2024-01-16T21:56:33.496Z,97455.46
2024-01-16T21:59:00.373Z,97457.08
2024-01-16T22:01:29.215Z,97456.82
2024-01-16T22:03:56.169Z,97457.20
2024-01-16T22:06:23.507Z,97457.89
2024-01-16T22:08:50.895Z,97459.20
2024-01-16T22:11:17.601Z,97453.17
2024-01-16T22:13:45.060Z,97449.73
2024-01-16T22:16:12.512Z,97449.89
2024-01-16T22:18:39.148Z,97450.27
2024-01-16T22:21:06.096Z,97460.55
2024-01-16T22:23:32.775Z,97461.18
2024-01-16T22:26:01.110Z,97463.02
2024-01-16T22:28:30.507Z,97463.79
2024-01-16T22:30:57.117Z,97468.16
2024-01-16T22:33:24.048Z,97466.45
2024-01-16T22:35:50.976Z,97466.13
2024-01-16T22:38:19.001Z,97464.46
2024-01-16T22:40:46.045Z,97467.15
2024-01-16T22:43:12.584Z,97468.45
2024-01-16T22:45:40.240Z,97465.06
2024-01-16T22:48:11.568Z,97465.29
2024-01-16T22:50:40.835Z,97467.80
2024-01-16T22:53:07.639Z,97469.70
2024-01-16T22:55:34.781Z,97470.02
2024-01-16T22:58:03.376Z,97469.95
2024-01-16T23:00:30.511Z,97469.54
2024-01-16T23:02:57.607Z,97467.02
2024-01-16T23:05:27.042Z,97462.98
2024-01-16T23:07:54.821Z,97467.92
2024-01-16T23:10:22.293Z,97467.44
2024-01-16T23:12:49.640Z,97463.75
2024-01-16T23:15:16.266Z,97465.20
2024-01-16T23:17:43.064Z,97471.73
2024-01-16T23:20:13.834Z,97469.58
2024-01-16T23:22:43.858Z,97472.80
2024-01-16T23:25:10.623Z,97475.70
2024-01-16T23:27:41.430Z,97471.38
2024-01-16T23:30:10.118Z,97473.25
2024-01-16T23:32:38.042Z,97477.93
2024-01-16T23:35:06.661Z,97480.46
2024-01-16T23:37:33.608Z,97480.96
2024-01-16T23:40:00.289Z,97480.30
2024-01-16T23:42:27.496Z,97481.28
2024-01-16T23:44:57.963Z,97484.24
2024-01-16T23:47:24.844Z,97486.94
2024-01-16T23:49:54.075Z,97490.02
2024-01-16T23:52:20.602Z,97490.39
2024-01-16T23:54:47.249Z,97492.00
2024-01-16T23:57:14.082Z,97492.85
2024-01-16T23:59:41.304Z,97492.64
